createdAt,value
2022-08-26T00:02:07.196Z,21.09
2022-08-26T00:04:35.423Z,21.11
2022-08-26T00:07:03.795Z,21.12
2022-08-26T00:09:37.313Z,21.14
2022-08-26T00:12:09.308Z,21.12
2022-08-26T00:14:40.846Z,21.12
2022-08-26T00:17:09.428Z,21.12
2022-08-26T00:19:38.094Z,21.06
2022-08-26T00:22:06.172Z,21.03
2022-08-26T00:24:35.593Z,20.99
2022-08-26T00:27:03.768Z,20.94
2022-08-26T00:29:34.936Z,20.85
2022-08-26T00:32:06.776Z,20.81
2022-08-26T00:34:35.319Z,20.74
2022-08-26T00:37:03.560Z,20.67
2022-08-26T00:39:31.958Z,20.61
2022-08-26T00:42:01.404Z,20.57
2022-08-26T00:44:30.320Z,20.48
2022-08-26T00:47:02.606Z,20.40
2022-08-26T00:49:36.977Z,20.34
2022-08-26T00:52:25.114Z,20.27
2022-08-26T00:55:05.289Z,20.22
2022-08-26T00:57:35.121Z,20.17
2022-08-26T01:00:09.206Z,20.16
2022-08-26T01:02:37.199Z,20.16
2022-08-26T01:05:07.484Z,20.12
2022-08-26T01:07:35.751Z,20.09
2022-08-26T01:10:06.376Z,20.10
2022-08-26T01:12:41.033Z,20.10
2022-08-26T01:15:11.430Z,20.10
2022-08-26T01:17:39.616Z,20.10
2022-08-26T01:20:11.533Z,20.09
2022-08-26T01:22:50.409Z,20.15
2022-08-26T01:25:20.802Z,20.17
2022-08-26T01:27:49.582Z,20.17
2022-08-26T01:30:19.097Z,20.22
2022-08-26T01:32:47.742Z,20.24
2022-08-26T01:35:16.072Z,20.23
2022-08-26T01:37:46.126Z,20.27
2022-08-26T01:40:18.050Z,20.26
2022-08-26T01:42:47.007Z,20.30
2022-08-26T01:45:19.682Z,20.29
2022-08-26T01:47:49.039Z,20.29
2022-08-26T01:50:27.706Z,20.29
2022-08-26T01:53:02.129Z,20.24
2022-08-26T01:55:33.185Z,20.26
2022-08-26T01:58:05.800Z,20.23
2022-08-26T02:00:34.218Z,20.19
2022-08-26T02:03:17.906Z,20.15
2022-08-26T02:05:47.476Z,20.13
2022-08-26T02:08:24.684Z,20.10
2022-08-26T02:10:54.576Z,20.10
2022-08-26T02:13:23.263Z,20.09
2022-08-26T02:15:52.692Z,20.05
2022-08-26T02:18:20.775Z,20.05
2022-08-26T02:20:51.625Z,20.05
2022-08-26T02:23:21.243Z,19.99
2022-08-26T02:25:56.788Z,19.96
2022-08-26T02:28:26.938Z,19.96
2022-08-26T02:30:55.725Z,19.90
2022-08-26T02:33:23.933Z,19.87
2022-08-26T02:35:52.941Z,19.86
2022-08-26T02:38:23.386Z,19.85
2022-08-26T02:40:51.735Z,19.82
2022-08-26T02:43:31.185Z,19.82
2022-08-26T02:46:01.735Z,19.82
2022-08-26T02:48:31.461Z,19.81
2022-08-26T02:51:00.873Z,19.76
2022-08-26T02:53:31.761Z,19.78
2022-08-26T02:56:00.531Z,19.78
2022-08-26T02:58:28.504Z,19.74
2022-08-26T03:00:56.543Z,19.75
2022-08-26T03:03:24.637Z,19.74
2022-08-26T03:05:52.971Z,19.72
2022-08-26T03:08:22.336Z,19.71
2022-08-26T03:10:52.569Z,19.69
2022-08-26T03:13:20.870Z,19.65
2022-08-26T03:15:49.167Z,19.62
2022-08-26T03:18:17.212Z,19.58
2022-08-26T03:20:45.547Z,19.53
2022-08-26T03:23:13.647Z,19.51
2022-08-26T03:25:42.223Z,19.48
2022-08-26T03:28:12.159Z,19.43
2022-08-26T03:30:45.318Z,19.38
2022-08-26T03:33:14.469Z,19.34
2022-08-26T03:35:44.393Z,19.34
2022-08-26T03:38:12.859Z,19.28
2022-08-26T03:40:42.465Z,19.28
2022-08-26T03:43:12.970Z,19.26
2022-08-26T03:45:41.869Z,19.20
2022-08-26T03:48:11.326Z,19.18
2022-08-26T03:50:40.122Z,19.17
2022-08-26T03:53:12.690Z,19.16
2022-08-26T03:55:41.372Z,19.13
2022-08-26T03:58:09.628Z,19.11
2022-08-26T04:00:39.340Z,19.08
2022-08-26T04:03:10.056Z,19.07
2022-08-26T04:05:38.957Z,19.06
2022-08-26T04:08:07.000Z,19.06
2022-08-26T04:10:38.316Z,19.07
2022-08-26T04:13:06.443Z,19.13
2022-08-26T04:15:34.459Z,19.23
2022-08-26T04:18:03.799Z,19.24
2022-08-26T04:20:31.962Z,19.30
2022-08-26T04:23:00.342Z,19.41
2022-08-26T04:25:28.569Z,19.45
2022-08-26T04:27:56.825Z,19.51
2022-08-26T04:30:25.628Z,19.59
2022-08-26T04:32:53.666Z,19.64
2022-08-26T04:35:26.010Z,19.68
2022-08-26T04:37:54.482Z,19.74
2022-08-26T04:40:22.659Z,19.81
2022-08-26T04:42:51.243Z,19.87
2022-08-26T04:45:22.886Z,19.90
2022-08-26T04:47:54.431Z,20.06
2022-08-26T04:50:25.758Z,20.15
2022-08-26T04:52:55.329Z,20.26
2022-08-26T04:55:25.316Z,20.36
2022-08-26T04:58:08.707Z,20.50
2022-08-26T05:00:38.520Z,20.64
2022-08-26T05:03:10.327Z,20.78
2022-08-26T05:05:41.295Z,20.95
2022-08-26T05:08:11.358Z,21.18
2022-08-26T05:10:41.545Z,21.38
2022-08-26T05:13:11.045Z,21.60
2022-08-26T05:15:40.563Z,21.83
2022-08-26T05:18:10.488Z,22.05
2022-08-26T05:20:42.399Z,22.27
2022-08-26T05:23:10.509Z,22.45
2022-08-26T05:25:40.449Z,22.56
2022-08-26T05:28:08.678Z,22.58
2022-08-26T05:30:36.900Z,22.72
2022-08-26T05:33:05.795Z,22.85
2022-08-26T05:35:34.333Z,22.95
2022-08-26T05:38:10.403Z,22.97
2022-08-26T05:40:42.073Z,23.20
2022-08-26T05:43:10.699Z,23.44
2022-08-26T05:45:44.837Z,23.77
2022-08-26T05:48:14.858Z,24.19
2022-08-26T05:50:46.776Z,24.60
2022-08-26T05:53:18.377Z,24.99
2022-08-26T05:55:48.855Z,25.32
2022-08-26T05:58:20.022Z,25.65
2022-08-26T06:00:57.605Z,25.96
2022-08-26T06:03:25.689Z,26.23
2022-08-26T06:05:53.915Z,26.48
2022-08-26T06:08:23.261Z,26.75
2022-08-26T06:10:53.460Z,26.98
2022-08-26T06:13:24.474Z,27.20
2022-08-26T06:15:52.686Z,27.50
2022-08-26T06:18:23.784Z,27.68
2022-08-26T06:20:57.850Z,27.92
2022-08-26T06:23:47.164Z,28.22
2022-08-26T06:26:16.722Z,28.50
2022-08-26T06:28:45.820Z,28.76
2022-08-26T06:31:14.382Z,28.98
2022-08-26T06:33:42.720Z,29.30
2022-08-26T06:36:14.301Z,29.59
2022-08-26T06:38:44.536Z,29.75
2022-08-26T06:41:12.489Z,29.86
2022-08-26T06:43:43.355Z,30.03
2022-08-26T06:46:14.240Z,30.26
2022-08-26T06:48:42.232Z,30.36
2022-08-26T06:51:13.953Z,30.06
2022-08-26T06:53:45.593Z,29.75
2022-08-26T06:56:15.725Z,29.69
2022-08-26T06:58:44.326Z,29.79
2022-08-26T07:01:18.119Z,29.37
2022-08-26T07:03:46.626Z,29.41
2022-08-26T07:06:14.889Z,29.63
2022-08-26T07:08:45.881Z,29.49
2022-08-26T07:11:15.653Z,29.61
2022-08-26T07:13:44.794Z,29.28
2022-08-26T07:16:16.368Z,29.34
2022-08-26T07:18:48.587Z,29.57
2022-08-26T07:21:18.291Z,29.59
2022-08-26T07:23:48.915Z,28.52
2022-08-26T07:26:19.556Z,28.35
2022-08-26T07:28:50.531Z,28.56
2022-08-26T07:31:22.987Z,28.77
2022-08-26T07:33:51.536Z,29.20
2022-08-26T07:36:20.452Z,29.38
2022-08-26T07:38:50.074Z,29.76
2022-08-26T07:41:20.131Z,30.13
2022-08-26T07:43:48.217Z,29.90
2022-08-26T07:46:27.037Z,29.49
2022-08-26T07:48:56.363Z,29.61
2022-08-26T07:51:24.824Z,29.96
2022-08-26T07:53:54.744Z,30.41
2022-08-26T07:56:22.999Z,30.52
2022-08-26T07:58:51.840Z,30.88
2022-08-26T08:01:20.545Z,31.35
2022-08-26T08:03:51.364Z,31.64
2022-08-26T08:06:20.191Z,31.62
2022-08-26T08:08:50.891Z,32.07
2022-08-26T08:11:21.562Z,32.28
2022-08-26T08:13:56.550Z,32.15
2022-08-26T08:16:26.102Z,32.39
2022-08-26T08:18:54.410Z,32.45
2022-08-26T08:21:24.315Z,32.48
2022-08-26T08:23:53.650Z,32.25
2022-08-26T08:26:24.696Z,32.27
2022-08-26T08:28:56.213Z,32.66
2022-08-26T08:31:52.092Z,32.75
2022-08-26T08:34:15.066Z,32.51
2022-08-26T08:36:43.266Z,32.37
2022-08-26T08:39:12.192Z,31.78
2022-08-26T08:41:52.792Z,31.30
2022-08-26T08:46:53.364Z,31.67
2022-08-26T08:49:22.233Z,31.64
2022-08-26T08:51:55.121Z,32.02
2022-08-26T08:54:26.318Z,32.49
2022-08-26T08:57:00.586Z,32.87
2022-08-26T08:59:32.851Z,33.13
2022-08-26T09:02:10.855Z,33.53
2022-08-26T09:05:04.605Z,33.73
2022-08-26T09:07:36.875Z,33.47
2022-08-26T09:10:14.915Z,32.51
2022-08-26T09:12:47.265Z,32.17
2022-08-26T09:15:18.852Z,31.44
2022-08-26T09:17:51.588Z,30.48
2022-08-26T09:20:29.697Z,30.55
2022-08-26T09:22:58.076Z,30.89
2022-08-26T09:25:26.156Z,30.86
2022-08-26T09:27:55.425Z,30.63
2022-08-26T09:30:26.500Z,30.04
2022-08-26T09:33:03.523Z,29.90
2022-08-26T09:35:40.031Z,30.09
2022-08-26T09:38:22.650Z,29.93
2022-08-26T09:41:00.273Z,30.03
2022-08-26T09:43:29.856Z,29.99
2022-08-26T09:46:14.123Z,29.79
2022-08-26T09:48:43.504Z,30.14
2022-08-26T09:51:28.303Z,30.38
2022-08-26T09:53:58.043Z,30.89
2022-08-26T09:56:28.317Z,31.47
2022-08-26T09:58:58.133Z,31.30
2022-08-26T10:01:30.702Z,30.84
2022-08-26T10:04:07.356Z,31.32
2022-08-26T10:06:39.124Z,31.62
2022-08-26T10:09:09.880Z,31.19
2022-08-26T10:11:42.442Z,30.63
2022-08-26T10:14:18.860Z,30.47
2022-08-26T10:16:51.222Z,30.43
2022-08-26T10:19:22.430Z,29.78
2022-08-26T10:21:54.094Z,29.46
2022-08-26T10:24:25.398Z,29.15
2022-08-26T10:27:01.157Z,29.04
2022-08-26T10:29:35.483Z,29.07
2022-08-26T10:32:08.303Z,29.08
2022-08-26T10:34:42.300Z,28.91
2022-08-26T10:37:15.569Z,28.87
2022-08-26T10:39:51.889Z,28.98
2022-08-26T10:42:28.857Z,29.01
2022-08-26T10:44:59.788Z,29.05
2022-08-26T10:47:32.551Z,28.95
2022-08-26T10:50:00.663Z,28.79
2022-08-26T10:52:39.390Z,28.62
2022-08-26T10:55:12.939Z,28.22
2022-08-26T10:57:45.728Z,27.88
2022-08-26T11:00:35.178Z,27.54
2022-08-26T11:03:09.470Z,27.22
2022-08-26T11:06:16.859Z,26.89
2022-08-26T11:08:48.930Z,26.62
2022-08-26T11:11:42.340Z,26.45
2022-08-26T11:14:10.951Z,26.18
2022-08-26T11:16:42.929Z,25.98
2022-08-26T11:19:13.972Z,25.76
2022-08-26T11:22:07.656Z,25.62
2022-08-26T11:25:06.492Z,25.55
2022-08-26T11:27:59.531Z,25.45
2022-08-26T11:30:53.221Z,25.41
2022-08-26T11:33:57.977Z,25.31
2022-08-26T11:36:40.196Z,25.21
2022-08-26T11:39:18.403Z,25.10
2022-08-26T11:41:48.194Z,24.67
2022-08-26T11:44:22.849Z,24.35
2022-08-26T11:46:57.927Z,23.89
2022-08-26T11:49:28.412Z,23.26
2022-08-26T11:52:12.769Z,22.77
2022-08-26T11:54:41.132Z,22.64
2022-08-26T11:57:13.440Z,22.68
2022-08-26T11:59:42.301Z,22.59
2022-08-26T12:02:15.883Z,22.52
2022-08-26T12:04:49.806Z,22.37
2022-08-26T12:07:23.804Z,22.31
2022-08-26T12:09:56.430Z,22.32
2022-08-26T12:12:31.718Z,22.24
2022-08-26T12:15:10.079Z,22.16
2022-08-26T12:17:38.709Z,22.10
2022-08-26T12:20:18.774Z,22.00
2022-08-26T12:22:47.950Z,21.90
2022-08-26T12:25:23.559Z,21.86
2022-08-26T12:27:54.052Z,21.74
2022-08-26T12:30:23.981Z,21.59
2022-08-26T12:32:58.202Z,21.47
2022-08-26T12:35:29.510Z,21.19
2022-08-26T12:37:57.831Z,20.98
2022-08-26T12:40:28.893Z,20.84
2022-08-26T12:42:59.173Z,20.81
2022-08-26T12:45:29.391Z,20.74
2022-08-26T12:48:01.395Z,20.57
2022-08-26T12:50:32.601Z,20.57
2022-08-26T12:53:03.190Z,20.63
2022-08-26T12:55:40.266Z,20.53
2022-08-26T12:58:13.622Z,20.48
2022-08-26T13:00:43.484Z,20.45
2022-08-26T13:03:38.277Z,20.40
2022-08-26T13:06:15.919Z,20.27
2022-08-26T13:08:45.480Z,20.26
2022-08-26T13:11:18.494Z,20.20
2022-08-26T13:13:47.775Z,20.13
2022-08-26T13:16:16.612Z,20.16
2022-08-26T13:18:44.996Z,20.17
2022-08-26T13:21:18.023Z,20.10
2022-08-26T13:23:46.065Z,19.99
2022-08-26T13:26:14.495Z,19.93
2022-08-26T13:28:43.168Z,19.82
2022-08-26T13:31:12.052Z,19.85
2022-08-26T13:33:40.400Z,19.83
2022-08-26T13:36:09.712Z,19.86
2022-08-26T13:38:39.020Z,19.85
2022-08-26T13:41:07.085Z,19.85
2022-08-26T13:43:35.608Z,19.89
2022-08-26T13:46:04.025Z,19.89
2022-08-26T13:48:34.413Z,19.93
2022-08-26T13:51:03.207Z,19.99
2022-08-26T13:53:36.371Z,20.01
2022-08-26T13:56:10.859Z,19.87
2022-08-26T13:58:39.170Z,19.85
2022-08-26T14:01:07.535Z,19.90
2022-08-26T14:03:35.997Z,19.95
2022-08-26T14:06:04.091Z,19.92
2022-08-26T14:08:32.783Z,19.83
2022-08-26T14:11:01.310Z,19.79
2022-08-26T14:13:30.697Z,19.76
2022-08-26T14:16:01.387Z,19.74
2022-08-26T14:18:31.032Z,19.75
2022-08-26T14:20:59.281Z,19.78
2022-08-26T14:23:27.618Z,19.76
2022-08-26T14:25:55.614Z,19.74
2022-08-26T14:28:23.624Z,19.71
2022-08-26T14:30:56.895Z,19.61
2022-08-26T14:33:28.700Z,19.58
2022-08-26T14:36:17.416Z,19.61
2022-08-26T14:38:45.466Z,19.57
2022-08-26T14:41:13.870Z,19.48
2022-08-26T14:43:45.395Z,19.47
2022-08-26T14:46:16.192Z,19.41
2022-08-26T14:48:44.538Z,19.40
2022-08-26T14:51:12.598Z,19.38
2022-08-26T14:53:58.487Z,19.36
2022-08-26T14:56:34.200Z,19.37
2022-08-26T14:59:02.380Z,19.34
2022-08-26T15:01:33.078Z,19.34
2022-08-26T15:04:01.352Z,19.36
2022-08-26T15:06:30.097Z,19.37
2022-08-26T15:08:58.355Z,19.40
2022-08-26T15:11:26.876Z,19.45
2022-08-26T15:13:55.293Z,19.47
2022-08-26T15:16:23.614Z,19.51
2022-08-26T15:18:53.139Z,19.57
2022-08-26T15:21:21.998Z,19.54
2022-08-26T15:23:51.562Z,19.57
2022-08-26T15:26:20.251Z,19.61
2022-08-26T15:28:48.522Z,19.64
2022-08-26T15:31:16.676Z,19.62
2022-08-26T15:33:44.836Z,19.65
2022-08-26T15:36:14.404Z,19.74
2022-08-26T15:38:42.898Z,19.76
2022-08-26T15:41:11.149Z,19.76
2022-08-26T15:43:39.405Z,19.76
2022-08-26T15:46:11.392Z,19.76
2022-08-26T15:48:39.845Z,19.76
2022-08-26T15:51:09.021Z,19.79
2022-08-26T15:53:38.311Z,19.82
2022-08-26T15:56:06.724Z,19.85
2022-08-26T15:58:36.335Z,19.89
2022-08-26T16:01:04.369Z,19.83
2022-08-26T16:03:32.369Z,19.89
2022-08-26T16:06:00.624Z,19.87
2022-08-26T16:08:28.955Z,19.86
2022-08-26T16:11:03.916Z,19.86
2022-08-26T16:13:31.861Z,19.89
2022-08-26T16:16:09.523Z,19.90
2022-08-26T16:18:37.966Z,19.92
2022-08-26T16:21:13.795Z,19.95
2022-08-26T16:23:45.000Z,19.99
2022-08-26T16:26:16.891Z,20.05
2022-08-26T16:28:44.973Z,20.06
2022-08-26T16:31:13.336Z,20.08
2022-08-26T16:33:41.533Z,20.09
2022-08-26T16:36:11.872Z,20.12
2022-08-26T16:38:40.532Z,20.15
2022-08-26T16:41:09.618Z,20.17
2022-08-26T16:43:38.925Z,20.20
2022-08-26T16:46:07.805Z,20.23
2022-08-26T16:48:38.337Z,20.19
2022-08-26T16:51:06.883Z,20.20
2022-08-26T16:53:34.892Z,20.20
2022-08-26T16:56:02.864Z,20.20
2022-08-26T16:58:31.316Z,20.20
2022-08-26T17:01:01.197Z,20.17
2022-08-26T17:03:29.164Z,20.19
2022-08-26T17:05:57.297Z,20.22
2022-08-26T17:08:28.919Z,20.19
2022-08-26T17:10:59.971Z,20.12
2022-08-26T17:13:35.567Z,20.12
2022-08-26T17:16:06.358Z,20.09
2022-08-26T17:18:35.539Z,20.09
2022-08-26T17:21:06.048Z,19.99
2022-08-26T17:23:34.407Z,20.01
2022-08-26T17:26:02.607Z,19.99
2022-08-26T17:28:30.739Z,19.99
2022-08-26T17:30:58.926Z,19.96
2022-08-26T17:33:29.192Z,19.95
2022-08-26T17:35:57.400Z,19.93
2022-08-26T17:38:28.877Z,19.96
2022-08-26T17:40:57.078Z,19.96
2022-08-26T17:43:26.745Z,19.93
2022-08-26T17:45:59.106Z,19.90
2022-08-26T17:48:37.502Z,19.87
2022-08-26T17:51:08.708Z,19.83
2022-08-26T17:53:37.140Z,19.81
2022-08-26T17:56:07.346Z,19.78
2022-08-26T17:58:36.508Z,19.75
2022-08-26T18:01:06.045Z,19.71
2022-08-26T18:03:36.318Z,19.72
2022-08-26T18:06:09.459Z,19.68
2022-08-26T18:08:37.862Z,19.65
2022-08-26T18:11:09.353Z,19.62
2022-08-26T18:13:37.871Z,19.59
2022-08-26T18:16:14.057Z,19.57
2022-08-26T18:18:43.682Z,19.54
2022-08-26T18:21:16.542Z,19.51
2022-08-26T18:23:44.943Z,19.47
2022-08-26T18:26:17.599Z,19.47
2022-08-26T18:28:45.961Z,19.43
2022-08-26T18:31:15.282Z,19.38
2022-08-26T18:33:45.136Z,19.34
2022-08-26T18:36:17.024Z,19.36
2022-08-26T18:38:45.441Z,19.34
2022-08-26T18:41:14.591Z,19.30
2022-08-26T18:43:43.231Z,19.27
2022-08-26T18:46:11.782Z,19.26
2022-08-26T18:48:41.285Z,19.21
2022-08-26T18:51:16.925Z,19.23
2022-08-26T18:53:47.827Z,19.21
2022-08-26T18:56:18.157Z,19.17
2022-08-26T18:58:46.802Z,19.14
2022-08-26T19:01:15.771Z,19.16
2022-08-26T19:03:44.049Z,19.16
2022-08-26T19:06:20.020Z,19.16
2022-08-26T19:08:49.906Z,19.13
2022-08-26T19:11:32.645Z,19.07
2022-08-26T19:14:07.611Z,19.10
2022-08-26T19:16:36.549Z,19.07
2022-08-26T19:19:04.705Z,19.02
2022-08-26T19:21:35.683Z,18.99
2022-08-26T19:24:06.041Z,18.97
2022-08-26T19:26:34.948Z,18.95
2022-08-26T19:29:03.160Z,18.93
2022-08-26T19:31:31.274Z,18.92
2022-08-26T19:34:00.031Z,18.92
2022-08-26T19:36:29.625Z,18.90
2022-08-26T19:39:00.186Z,18.90
2022-08-26T19:41:37.037Z,18.90
2022-08-26T19:44:08.872Z,18.93
2022-08-26T19:49:05.507Z,18.96
2022-08-26T19:51:35.444Z,18.95
2022-08-26T19:54:05.258Z,18.96
2022-08-26T19:56:33.229Z,18.95
2022-08-26T19:59:01.266Z,18.99
2022-08-26T20:01:29.424Z,19.00
2022-08-26T20:03:57.504Z,19.02
2022-08-26T20:06:25.495Z,19.00
2022-08-26T20:08:53.941Z,18.99
2022-08-26T20:11:25.727Z,18.97
2022-08-26T20:13:54.089Z,18.97
2022-08-26T20:16:22.192Z,18.97
2022-08-26T20:19:07.597Z,18.96
2022-08-26T20:21:38.181Z,19.00
2022-08-26T20:24:08.812Z,19.00
2022-08-26T20:26:39.770Z,18.96
2022-08-26T20:29:08.820Z,18.93
2022-08-26T20:31:36.946Z,18.95
2022-08-26T20:34:05.598Z,18.86
2022-08-26T20:36:34.636Z,18.86
2022-08-26T20:39:02.681Z,18.79
2022-08-26T20:41:31.464Z,18.79
2022-08-26T20:44:01.873Z,18.69
2022-08-26T20:46:30.151Z,18.69
2022-08-26T20:48:58.686Z,18.65
2022-08-26T20:51:27.935Z,18.66
2022-08-26T20:53:56.072Z,18.65
2022-08-26T20:56:26.519Z,18.64
2022-08-26T20:58:56.228Z,18.61
2022-08-26T21:01:28.073Z,18.61
2022-08-26T21:03:57.534Z,18.68
2022-08-26T21:06:25.701Z,18.66
2022-08-26T21:08:54.625Z,18.71
2022-08-26T21:11:22.905Z,18.72
2022-08-26T21:14:15.673Z,18.73
2022-08-26T21:16:41.480Z,18.72
2022-08-26T21:19:11.577Z,18.72
2022-08-26T21:21:40.670Z,18.73
2022-08-26T21:24:09.035Z,18.76
2022-08-26T21:26:37.516Z,18.76
2022-08-26T21:29:06.707Z,18.82
2022-08-26T21:31:35.020Z,18.80
2022-08-26T21:34:04.566Z,18.85
2022-08-26T21:36:32.540Z,18.85
2022-08-26T21:39:01.425Z,18.89
2022-08-26T21:41:29.630Z,18.87
2022-08-26T21:43:59.567Z,18.89
2022-08-26T21:46:29.613Z,18.90
2022-08-26T21:48:59.047Z,18.86
2022-08-26T21:51:30.325Z,18.92
2022-08-26T21:53:59.563Z,18.93
2022-08-26T21:56:29.475Z,18.95
2022-08-26T21:58:58.894Z,18.95
2022-08-26T22:01:32.454Z,18.97
2022-08-26T22:04:00.509Z,18.97
2022-08-26T22:06:30.032Z,18.95
2022-08-26T22:08:58.456Z,18.96
2022-08-26T22:11:27.409Z,18.93
2022-08-26T22:13:56.787Z,18.89
2022-08-26T22:16:27.065Z,18.90
2022-08-26T22:18:55.359Z,18.89
2022-08-26T22:21:25.431Z,18.87
2022-08-26T22:23:58.045Z,18.89
2022-08-26T22:26:28.206Z,18.82
2022-08-26T22:28:59.063Z,18.83
2022-08-26T22:31:35.258Z,18.79
2022-08-26T22:34:07.385Z,18.76
2022-08-26T22:36:35.513Z,18.73
2022-08-26T22:39:10.486Z,18.76
2022-08-26T22:41:38.662Z,18.78
2022-08-26T22:44:06.674Z,18.78
2022-08-26T22:46:36.765Z,18.79
2022-08-26T22:49:05.326Z,18.78
2022-08-26T22:51:33.378Z,18.79
2022-08-26T22:54:01.587Z,18.78
2022-08-26T22:56:30.952Z,18.80
2022-08-26T22:58:59.026Z,18.79
2022-08-26T23:01:27.523Z,18.83
2022-08-26T23:03:55.555Z,18.79
2022-08-26T23:06:24.175Z,18.76
2022-08-26T23:08:53.118Z,18.79
2022-08-26T23:11:21.076Z,18.75
2022-08-26T23:13:50.381Z,18.78
2022-08-26T23:16:18.455Z,18.72
2022-08-26T23:18:46.999Z,18.73
2022-08-26T23:21:15.207Z,18.75
2022-08-26T23:23:44.245Z,18.75
2022-08-26T23:26:17.447Z,18.72
2022-08-26T23:28:46.150Z,18.73
2022-08-26T23:31:15.538Z,18.71
2022-08-26T23:34:01.000Z,18.68
2022-08-26T23:36:31.125Z,18.64
2022-08-26T23:39:03.846Z,18.64
2022-08-26T23:41:32.208Z,18.62
2022-08-26T23:44:03.403Z,18.59
2022-08-26T23:46:33.751Z,18.55
2022-08-26T23:49:02.045Z,18.58
2022-08-26T23:51:47.328Z,18.55
2022-08-26T23:54:16.531Z,18.51
2022-08-26T23:56:44.796Z,18.49
2022-08-26T23:59:12.838Z,18.56
